createdAt,value
2023-05-03T00:01:58.661Z,6.30
2023-05-03T00:04:28.798Z,5.30
2023-05-03T00:06:57.297Z,6.10
2023-05-03T00:09:26.026Z,6.20
2023-05-03T00:11:54.663Z,6.23
2023-05-03T00:14:23.093Z,6.13
2023-05-03T00:16:51.579Z,6.30
2023-05-03T00:19:28.373Z,6.47
2023-05-03T00:22:00.890Z,6.30
2023-05-03T00:24:29.046Z,6.40
2023-05-03T00:26:57.408Z,6.73
2023-05-03T00:29:26.149Z,7.17
2023-05-03T00:31:54.536Z,6.93
2023-05-03T00:34:22.718Z,6.57
2023-05-03T00:36:53.197Z,6.77
2023-05-03T00:39:22.824Z,5.73
2023-05-03T00:41:50.995Z,5.70
2023-05-03T00:44:19.356Z,6.17
2023-05-03T00:46:47.584Z,5.93
2023-05-03T00:49:15.876Z,6.53
2023-05-03T00:51:45.829Z,6.20
2023-05-03T00:54:14.204Z,6.10
2023-05-03T00:56:51.616Z,5.80
2023-05-03T00:59:21.409Z,6.40
2023-05-03T01:01:52.587Z,6.50
2023-05-03T01:04:21.837Z,6.20
2023-05-03T01:07:00.767Z,7.10
2023-05-03T01:09:34.891Z,6.43
2023-05-03T01:12:16.235Z,7.27
2023-05-03T01:14:53.463Z,6.90
2023-05-03T01:17:28.573Z,7.27
2023-05-03T01:20:00.835Z,7.57
2023-05-03T01:22:39.188Z,6.77
2023-05-03T01:25:10.921Z,6.97
2023-05-03T01:27:40.365Z,6.73
2023-05-03T01:30:10.982Z,7.13
2023-05-03T01:32:50.775Z,6.50
2023-05-03T01:35:27.514Z,6.60
2023-05-03T01:37:58.477Z,6.80
2023-05-03T01:40:29.779Z,6.20
2023-05-03T01:42:58.547Z,6.50
2023-05-03T01:45:27.628Z,6.23
2023-05-03T01:47:57.822Z,6.37
2023-05-03T01:50:26.176Z,6.73
2023-05-03T01:52:54.641Z,6.43
2023-05-03T01:55:23.051Z,6.43
2023-05-03T01:57:53.268Z,5.50
2023-05-03T02:00:21.866Z,5.27
2023-05-03T02:02:51.866Z,5.47
2023-05-03T02:05:20.135Z,5.77
2023-05-03T02:07:48.537Z,5.43
2023-05-03T02:10:16.945Z,5.20
2023-05-03T02:12:45.719Z,5.20
2023-05-03T02:15:15.444Z,6.33
2023-05-03T02:17:45.711Z,6.40
2023-05-03T02:20:14.590Z,6.43
2023-05-03T02:22:42.989Z,6.30
2023-05-03T02:25:11.616Z,5.83
2023-05-03T02:27:40.013Z,6.40
2023-05-03T02:30:09.835Z,6.37
2023-05-03T02:32:39.560Z,6.23
2023-05-03T02:35:08.735Z,5.90
2023-05-03T02:37:37.062Z,6.40
2023-05-03T02:40:06.738Z,5.73
2023-05-03T02:42:34.921Z,6.37
2023-05-03T02:45:03.477Z,5.97
2023-05-03T02:47:31.764Z,6.33
2023-05-03T02:50:01.794Z,5.67
2023-05-03T02:52:30.555Z,5.93
2023-05-03T02:54:58.905Z,5.73
2023-05-03T02:57:27.361Z,5.90
2023-05-03T02:59:57.422Z,6.07
2023-05-03T03:02:26.472Z,6.50
2023-05-03T03:04:55.273Z,6.70
2023-05-03T03:07:25.197Z,6.67
2023-05-03T03:09:53.368Z,6.33
2023-05-03T03:12:21.495Z,6.90
2023-05-03T03:14:49.596Z,6.87
2023-05-03T03:17:18.079Z,6.43
2023-05-03T03:19:46.256Z,6.67
2023-05-03T03:22:14.341Z,6.77
2023-05-03T03:24:45.273Z,7.33
2023-05-03T03:27:13.943Z,7.10
2023-05-03T03:29:42.303Z,7.00
2023-05-03T03:32:10.864Z,6.80
2023-05-03T03:34:38.947Z,7.20
2023-05-03T03:37:07.460Z,7.23
2023-05-03T03:39:35.907Z,7.40
2023-05-03T03:42:05.742Z,6.77
2023-05-03T03:44:34.042Z,7.10
2023-05-03T03:47:05.493Z,7.20
2023-05-03T03:49:33.784Z,6.63
2023-05-03T03:52:02.240Z,8.07
2023-05-03T03:54:30.486Z,8.20
2023-05-03T03:56:58.704Z,7.53
2023-05-03T03:59:28.505Z,7.63
2023-05-03T04:01:57.979Z,7.83
2023-05-03T04:04:26.829Z,7.87
2023-05-03T04:06:55.267Z,8.33
2023-05-03T04:09:23.767Z,7.70
2023-05-03T04:11:52.037Z,8.07
2023-05-03T04:14:20.293Z,7.67
2023-05-03T04:16:50.588Z,7.70
2023-05-03T04:19:19.322Z,8.10
2023-05-03T04:21:47.785Z,7.80
2023-05-03T04:24:17.640Z,7.90
2023-05-03T04:26:45.933Z,7.93
2023-05-03T04:29:14.680Z,7.87
2023-05-03T04:31:43.217Z,8.43
2023-05-03T04:34:15.102Z,7.80
2023-05-03T04:36:46.066Z,7.70
2023-05-03T04:39:14.334Z,7.73
2023-05-03T04:41:42.890Z,8.23
2023-05-03T04:44:11.282Z,7.93
2023-05-03T04:46:39.952Z,7.87
2023-05-03T04:49:08.111Z,7.40
2023-05-03T04:51:37.801Z,8.07
2023-05-03T04:54:06.370Z,7.60
2023-05-03T04:56:35.960Z,8.40
2023-05-03T04:59:04.577Z,8.40
2023-05-03T05:01:33.066Z,7.53
2023-05-03T05:04:01.329Z,7.80
2023-05-03T05:06:29.637Z,7.53
2023-05-03T05:08:59.640Z,7.73
2023-05-03T05:11:27.943Z,7.93
2023-05-03T05:13:56.738Z,7.93
2023-05-03T05:16:25.079Z,7.67
2023-05-03T05:18:54.466Z,7.30
2023-05-03T05:21:22.749Z,7.40
2023-05-03T05:23:50.785Z,7.80
2023-05-03T05:26:20.846Z,7.53
2023-05-03T05:28:49.031Z,6.90
2023-05-03T05:31:17.079Z,7.53
2023-05-03T05:33:45.435Z,7.07
2023-05-03T05:36:13.750Z,6.87
2023-05-03T05:38:42.466Z,7.13
2023-05-03T05:41:10.740Z,7.03
2023-05-03T05:43:40.250Z,7.07
2023-05-03T05:46:08.866Z,6.43
2023-05-03T05:48:36.921Z,7.50
2023-05-03T05:51:05.544Z,6.60
2023-05-03T05:53:34.857Z,7.17
2023-05-03T05:56:03.054Z,6.90
2023-05-03T05:58:31.561Z,6.10
2023-05-03T06:01:03.906Z,6.93
2023-05-03T06:03:32.420Z,6.63
2023-05-03T06:06:01.410Z,6.27
2023-05-03T06:08:29.839Z,6.13
2023-05-03T06:10:58.095Z,5.40
2023-05-03T06:13:26.541Z,5.90
2023-05-03T06:15:55.140Z,5.67
2023-05-03T06:18:24.982Z,5.57
2023-05-03T06:20:53.410Z,5.10
2023-05-03T06:23:22.402Z,5.17
2023-05-03T06:25:50.504Z,5.53
2023-05-03T06:28:18.585Z,4.93
2023-05-03T06:30:51.939Z,4.90
2023-05-03T06:33:20.080Z,5.37
2023-05-03T06:35:49.632Z,4.87
2023-05-03T06:38:18.027Z,5.03
2023-05-03T06:40:46.494Z,5.17
2023-05-03T06:43:14.847Z,5.43
2023-05-03T06:45:44.855Z,5.20
2023-05-03T06:48:13.442Z,5.20
2023-05-03T06:50:41.940Z,5.03
2023-05-03T06:53:11.646Z,5.07
2023-05-03T06:55:40.237Z,5.20
2023-05-03T06:58:11.922Z,5.47
2023-05-03T07:00:41.289Z,5.10
2023-05-03T07:03:09.566Z,5.07
2023-05-03T07:05:38.654Z,5.03
2023-05-03T07:08:07.087Z,5.23
2023-05-03T07:10:37.603Z,5.27
2023-05-03T07:13:06.102Z,4.97
2023-05-03T07:15:34.334Z,5.10
2023-05-03T07:18:02.896Z,5.00
2023-05-03T07:20:31.219Z,4.90
2023-05-03T07:22:59.694Z,4.80
2023-05-03T07:25:28.081Z,4.80
2023-05-03T07:27:58.228Z,4.57
2023-05-03T07:30:27.126Z,4.57
2023-05-03T07:32:55.623Z,4.20
2023-05-03T07:35:25.111Z,4.23
2023-05-03T07:37:53.258Z,4.47
2023-05-03T07:40:21.630Z,4.87
2023-05-03T07:42:50.055Z,4.00
2023-05-03T07:45:21.170Z,4.10
2023-05-03T07:47:49.618Z,4.07
2023-05-03T07:50:18.013Z,4.20
2023-05-03T07:52:46.370Z,4.37
2023-05-03T07:55:14.603Z,4.53
2023-05-03T07:57:43.167Z,3.83
2023-05-03T08:00:12.752Z,4.00
2023-05-03T08:02:42.944Z,4.30
2023-05-03T08:05:15.066Z,4.17
2023-05-03T08:07:44.608Z,4.07
2023-05-03T08:10:15.613Z,4.27
2023-05-03T08:12:45.740Z,4.07
2023-05-03T08:15:13.955Z,3.93
2023-05-03T08:17:46.114Z,4.10
2023-05-03T08:20:15.796Z,4.33
2023-05-03T08:22:45.485Z,4.40
2023-05-03T08:25:13.728Z,3.87
2023-05-03T08:27:42.046Z,3.73
2023-05-03T08:30:10.815Z,3.87
2023-05-03T08:32:39.502Z,5.13
2023-05-03T08:35:10.680Z,3.73
2023-05-03T08:37:42.324Z,4.40
2023-05-03T08:40:12.212Z,3.80
2023-05-03T08:42:42.082Z,4.10
2023-05-03T08:45:13.390Z,4.90
2023-05-03T08:47:42.181Z,4.70
2023-05-03T08:50:13.659Z,3.70
2023-05-03T08:52:43.516Z,3.60
2023-05-03T08:55:12.636Z,3.87
2023-05-03T08:57:41.688Z,4.23
2023-05-03T09:00:13.321Z,3.90
2023-05-03T09:02:42.250Z,3.77
2023-05-03T09:05:35.555Z,4.60
2023-05-03T09:08:05.318Z,3.90
2023-05-03T09:10:35.641Z,4.30
2023-05-03T09:13:04.374Z,3.50
2023-05-03T09:15:32.853Z,3.77
2023-05-03T09:18:12.363Z,4.30
2023-05-03T09:20:51.788Z,3.70
2023-05-03T09:23:29.946Z,3.90
2023-05-03T09:25:59.551Z,3.40
2023-05-03T09:28:28.070Z,3.23
2023-05-03T09:31:07.293Z,3.90
2023-05-03T09:33:35.664Z,3.50
2023-05-03T09:36:06.690Z,3.83
2023-05-03T09:38:36.779Z,3.20
2023-05-03T09:41:06.416Z,3.70
2023-05-03T09:43:34.987Z,3.33
2023-05-03T09:46:10.756Z,3.70
2023-05-03T09:48:39.527Z,3.50
2023-05-03T09:51:10.329Z,3.50
2023-05-03T09:53:40.203Z,3.20
2023-05-03T09:56:12.673Z,3.60
2023-05-03T09:58:43.890Z,3.23
2023-05-03T10:01:12.315Z,3.60
2023-05-03T10:03:44.219Z,3.70
2023-05-03T10:06:26.749Z,3.50
2023-05-03T10:08:59.622Z,3.40
2023-05-03T10:11:29.415Z,3.07
2023-05-03T10:13:58.094Z,3.13
2023-05-03T10:16:31.695Z,3.23
2023-05-03T10:19:08.985Z,3.50
2023-05-03T10:21:55.658Z,3.43
2023-05-03T10:24:24.328Z,3.10
2023-05-03T10:26:53.413Z,3.40
2023-05-03T10:29:49.750Z,3.40
2023-05-03T10:32:39.791Z,3.47
2023-05-03T10:35:10.953Z,3.40
2023-05-03T10:37:42.693Z,3.10
2023-05-03T10:40:14.151Z,3.10
2023-05-03T10:42:45.624Z,3.43
2023-05-03T10:45:23.065Z,3.30
2023-05-03T10:48:20.962Z,3.10
2023-05-03T10:50:50.500Z,3.20
2023-05-03T10:53:50.910Z,3.43
2023-05-03T10:56:19.323Z,3.30
2023-05-03T10:58:50.862Z,3.10
2023-05-03T11:01:20.477Z,2.97
2023-05-03T11:03:53.568Z,3.00
2023-05-03T11:06:33.584Z,2.90
2023-05-03T11:09:06.129Z,2.80
2023-05-03T11:11:34.874Z,2.90
2023-05-03T11:14:03.458Z,3.13
2023-05-03T11:16:32.032Z,3.03
2023-05-03T11:19:01.195Z,3.00
2023-05-03T11:21:29.464Z,3.07
2023-05-03T11:24:00.553Z,3.30
2023-05-03T11:26:30.551Z,3.00
2023-05-03T11:28:58.800Z,3.43
2023-05-03T11:31:27.213Z,3.90
2023-05-03T11:33:55.473Z,2.70
2023-05-03T11:36:23.620Z,2.73
2023-05-03T11:38:51.966Z,3.00
2023-05-03T11:41:20.738Z,3.40
2023-05-03T11:44:00.798Z,3.23
2023-05-03T11:46:37.113Z,2.87
2023-05-03T11:49:05.590Z,2.60
2023-05-03T11:51:33.806Z,3.23
2023-05-03T11:54:16.985Z,3.23
2023-05-03T11:56:53.127Z,3.07
2023-05-03T11:59:36.051Z,3.10
2023-05-03T12:02:04.419Z,3.00
2023-05-03T12:04:33.537Z,3.23
2023-05-03T12:07:03.002Z,2.80
2023-05-03T12:09:32.485Z,3.23
2023-05-03T12:12:02.581Z,2.50
2023-05-03T12:14:57.816Z,2.73
2023-05-03T12:17:37.984Z,2.60
2023-05-03T12:22:57.914Z,2.67
2023-05-03T12:25:30.698Z,2.63
2023-05-03T12:28:18.005Z,2.73
2023-05-03T12:30:52.945Z,2.57
2023-05-03T12:33:23.171Z,3.37
2023-05-03T12:35:54.240Z,2.97
2023-05-03T12:38:24.316Z,2.92
2023-05-03T12:40:54.832Z,3.17
2023-05-03T12:43:23.252Z,2.77
2023-05-03T12:46:08.505Z,2.13
2023-05-03T12:48:44.129Z,2.73
2023-05-03T12:53:47.213Z,2.30
2023-05-03T12:56:17.465Z,2.42
2023-05-03T13:02:17.167Z,2.47
2023-05-03T13:06:45.241Z,2.53
2023-05-03T13:09:19.919Z,2.40
2023-05-03T13:11:50.286Z,2.30
2023-05-03T13:14:18.891Z,2.33
2023-05-03T13:16:49.361Z,2.50
2023-05-03T13:19:17.783Z,2.35
2023-05-03T13:21:48.685Z,2.50
2023-05-03T13:24:18.896Z,2.70
2023-05-03T13:26:47.366Z,2.10
2023-05-03T13:29:15.747Z,2.75
2023-05-03T13:31:43.949Z,2.20
2023-05-03T13:34:13.804Z,2.25
2023-05-03T13:36:41.957Z,2.60
2023-05-03T13:39:10.766Z,2.30
2023-05-03T13:41:42.361Z,2.47
2023-05-03T13:44:11.980Z,2.22
2023-05-03T13:46:41.495Z,2.35
2023-05-03T13:49:09.773Z,2.00
2023-05-03T13:51:39.783Z,2.08
2023-05-03T13:54:09.261Z,1.65
2023-05-03T13:56:38.133Z,1.73
2023-05-03T13:59:08.694Z,2.05
2023-05-03T14:01:36.968Z,2.42
2023-05-03T14:04:05.614Z,1.83
2023-05-03T14:06:34.371Z,2.35
2023-05-03T14:09:05.029Z,2.08
2023-05-03T14:11:33.393Z,2.15
2023-05-03T14:14:01.751Z,1.92
2023-05-03T14:19:01.292Z,2.13
2023-05-03T14:21:31.907Z,2.33
2023-05-03T14:24:00.230Z,1.90
2023-05-03T14:26:30.588Z,2.17
2023-05-03T14:29:00.652Z,1.80
2023-05-03T14:31:29.260Z,2.13
2023-05-03T14:33:57.481Z,2.05
2023-05-03T14:36:25.734Z,1.98
2023-05-03T14:38:53.864Z,1.90
2023-05-03T14:41:22.149Z,2.03
2023-05-03T14:43:51.760Z,2.00
2023-05-03T14:46:21.245Z,1.80
2023-05-03T14:48:49.961Z,1.67
2023-05-03T14:51:19.105Z,2.08
2023-05-03T14:53:47.434Z,1.67
2023-05-03T14:56:15.740Z,1.80
2023-05-03T14:58:44.139Z,2.20
2023-05-03T15:01:20.540Z,1.60
2023-05-03T15:03:49.833Z,1.92
2023-05-03T15:06:24.331Z,1.83
2023-05-03T15:08:52.673Z,2.15
2023-05-03T15:11:21.258Z,2.00
2023-05-03T15:13:49.463Z,2.30
2023-05-03T15:16:19.534Z,2.08
2023-05-03T15:18:49.734Z,2.08
2023-05-03T15:21:21.402Z,1.83
2023-05-03T15:23:49.886Z,1.88
2023-05-03T15:26:18.194Z,1.80
2023-05-03T15:28:46.247Z,1.80
2023-05-03T15:31:15.151Z,1.92
2023-05-03T15:33:46.260Z,1.90
2023-05-03T15:36:16.920Z,1.83
2023-05-03T15:38:45.663Z,1.40
2023-05-03T15:41:16.415Z,1.85
2023-05-03T15:43:46.765Z,1.80
2023-05-03T15:46:15.317Z,2.25
2023-05-03T15:48:45.483Z,1.40
2023-05-03T15:51:13.987Z,1.65
2023-05-03T15:53:42.691Z,1.77
2023-05-03T15:56:12.011Z,1.98
2023-05-03T15:58:42.534Z,1.65
2023-05-03T16:01:12.920Z,1.55
2023-05-03T16:03:48.691Z,1.67
2023-05-03T16:06:18.453Z,1.50
2023-05-03T16:08:47.086Z,1.80
2023-05-03T16:11:16.121Z,2.05
2023-05-03T16:13:45.559Z,1.70
2023-05-03T16:16:13.904Z,1.73
2023-05-03T16:18:41.991Z,1.95
2023-05-03T16:21:12.034Z,1.63
2023-05-03T16:23:40.984Z,2.33
2023-05-03T16:26:14.654Z,2.10
2023-05-03T16:28:43.439Z,2.38
2023-05-03T16:31:12.474Z,1.77
2023-05-03T16:33:41.018Z,1.70
2023-05-03T16:36:09.833Z,1.70
2023-05-03T16:38:40.268Z,1.70
2023-05-03T16:41:09.131Z,3.95
2023-05-03T16:43:38.275Z,2.50
2023-05-03T16:46:07.156Z,1.70
2023-05-03T16:48:36.764Z,1.85
2023-05-03T16:51:05.476Z,1.80
2023-05-03T16:53:34.571Z,1.42
2023-05-03T16:56:04.678Z,6.88
2023-05-03T16:58:40.229Z,1.75
2023-05-03T17:01:08.709Z,1.50
2023-05-03T17:03:37.285Z,1.73
2023-05-03T17:06:06.683Z,1.60
2023-05-03T17:08:34.954Z,2.10
2023-05-03T17:11:08.387Z,1.73
2023-05-03T17:13:36.578Z,2.00
2023-05-03T17:16:10.206Z,2.10
2023-05-03T17:18:40.611Z,1.95
2023-05-03T17:21:09.835Z,1.88
2023-05-03T17:23:39.742Z,1.40
2023-05-03T17:26:11.104Z,1.60
2023-05-03T17:28:39.301Z,1.70
2023-05-03T17:31:08.259Z,1.55
2023-05-03T17:33:37.988Z,1.77
2023-05-03T17:36:06.692Z,2.03
2023-05-03T17:38:36.376Z,1.35
2023-05-03T17:41:05.557Z,1.45
2023-05-03T17:43:35.837Z,1.40
2023-05-03T17:46:14.996Z,1.40
2023-05-03T17:48:44.403Z,1.20
2023-05-03T17:51:13.783Z,1.88
2023-05-03T17:53:43.362Z,1.80
2023-05-03T17:56:15.501Z,1.30
2023-05-03T17:58:46.727Z,2.22
2023-05-03T18:01:16.143Z,1.93
2023-05-03T18:03:44.814Z,2.00
2023-05-03T18:06:14.582Z,1.37
2023-05-03T18:08:43.020Z,1.70
2023-05-03T18:11:11.466Z,1.80
2023-05-03T18:13:40.340Z,1.40
2023-05-03T18:16:11.813Z,1.77
2023-05-03T18:18:40.262Z,1.20
2023-05-03T18:21:10.675Z,1.30
2023-05-03T18:23:39.084Z,1.60
2023-05-03T18:26:08.160Z,2.00
2023-05-03T18:28:37.784Z,1.70
2023-05-03T18:31:07.754Z,1.73
2023-05-03T18:33:40.128Z,2.03
2023-05-03T18:36:11.894Z,1.90
2023-05-03T18:38:40.422Z,1.90
2023-05-03T18:41:14.503Z,1.60
2023-05-03T18:43:43.471Z,1.87
2023-05-03T18:46:12.263Z,2.27
2023-05-03T18:48:41.798Z,1.60
2023-05-03T18:51:10.709Z,1.90
2023-05-03T18:53:38.810Z,2.00
2023-05-03T18:56:07.339Z,2.43
2023-05-03T18:58:35.670Z,1.40
2023-05-03T19:01:04.996Z,1.90
2023-05-03T19:03:33.556Z,1.50
2023-05-03T19:06:05.674Z,1.60
2023-05-03T19:08:33.921Z,1.70
2023-05-03T19:11:08.585Z,1.37
2023-05-03T19:13:37.823Z,1.57
2023-05-03T19:16:06.708Z,1.80
2023-05-03T19:18:37.292Z,1.60
2023-05-03T19:21:07.404Z,1.70
2023-05-03T19:23:35.778Z,2.10
2023-05-03T19:26:04.253Z,1.90
2023-05-03T19:28:32.848Z,2.13
2023-05-03T19:31:04.665Z,1.87
2023-05-03T19:33:33.236Z,2.20
2023-05-03T19:36:06.919Z,2.40
2023-05-03T19:38:37.136Z,1.83
2023-05-03T19:41:09.703Z,1.90
2023-05-03T19:43:38.027Z,1.83
2023-05-03T19:46:06.523Z,1.90
2023-05-03T19:48:35.162Z,2.10
2023-05-03T19:51:05.503Z,1.50
2023-05-03T19:53:35.336Z,2.20
2023-05-03T19:56:05.350Z,2.50
2023-05-03T19:58:33.704Z,2.60
2023-05-03T20:01:02.038Z,2.13
2023-05-03T20:03:30.380Z,1.97
2023-05-03T20:05:58.811Z,2.00
2023-05-03T20:08:27.444Z,2.70
2023-05-03T20:10:56.956Z,2.17
2023-05-03T20:13:27.875Z,2.10
2023-05-03T20:15:56.429Z,2.10
2023-05-03T20:18:24.911Z,2.23
2023-05-03T20:20:53.352Z,3.10
2023-05-03T20:23:22.456Z,2.10
2023-05-03T20:25:50.901Z,2.53
2023-05-03T20:28:19.586Z,2.40
2023-05-03T20:30:49.698Z,2.20
2023-05-03T20:33:17.897Z,2.53
2023-05-03T20:35:46.673Z,2.57
2023-05-03T20:38:15.375Z,2.47
2023-05-03T20:40:45.151Z,2.40
2023-05-03T20:43:13.549Z,2.20
2023-05-03T20:45:43.678Z,2.20
2023-05-03T20:48:13.759Z,2.40
2023-05-03T20:50:41.771Z,2.27
2023-05-03T20:53:10.457Z,2.27
2023-05-03T20:55:41.637Z,2.27
2023-05-03T20:58:10.052Z,2.23
2023-05-03T21:00:38.982Z,2.30
2023-05-03T21:03:07.616Z,2.13
2023-05-03T21:05:37.721Z,2.20
2023-05-03T21:08:06.247Z,2.00
2023-05-03T21:10:34.517Z,2.47
2023-05-03T21:13:03.710Z,2.80
2023-05-03T21:15:32.326Z,2.57
2023-05-03T21:18:06.407Z,2.40
2023-05-03T21:20:34.961Z,1.97
2023-05-03T21:23:05.933Z,3.33
2023-05-03T21:25:34.350Z,2.63
2023-05-03T21:28:02.851Z,2.80
2023-05-03T21:30:31.077Z,3.07
2023-05-03T21:32:59.198Z,2.70
2023-05-03T21:35:30.617Z,2.83
2023-05-03T21:37:59.258Z,2.37
2023-05-03T21:40:29.583Z,2.53
2023-05-03T21:42:58.024Z,2.10
2023-05-03T21:45:26.379Z,2.13
2023-05-03T21:47:54.673Z,1.90
2023-05-03T21:50:23.790Z,2.23
2023-05-03T21:52:52.303Z,2.20
2023-05-03T21:55:21.026Z,2.30
2023-05-03T21:57:51.684Z,2.47
2023-05-03T22:00:21.013Z,2.33
2023-05-03T22:02:50.028Z,2.60
2023-05-03T22:05:18.630Z,2.40
2023-05-03T22:07:48.699Z,2.40
2023-05-03T22:10:17.361Z,2.80
2023-05-03T22:12:45.561Z,2.43
2023-05-03T22:15:15.516Z,2.60
2023-05-03T22:17:43.850Z,2.90
2023-05-03T22:20:12.976Z,2.60
2023-05-03T22:22:41.940Z,2.70
2023-05-03T22:25:13.003Z,2.53
2023-05-03T22:27:41.381Z,3.03
2023-05-03T22:30:10.550Z,2.40
2023-05-03T22:32:40.310Z,2.87
2023-05-03T22:35:09.496Z,2.50
2023-05-03T22:37:37.999Z,2.53
2023-05-03T22:40:09.353Z,2.80
2023-05-03T22:42:38.195Z,2.90
2023-05-03T22:45:07.251Z,2.80
2023-05-03T22:47:35.915Z,2.73
2023-05-03T22:50:07.750Z,2.30
2023-05-03T22:52:35.832Z,2.60
2023-05-03T22:55:04.249Z,2.93
2023-05-03T22:57:32.483Z,2.60
2023-05-03T23:00:01.005Z,2.97
2023-05-03T23:02:29.540Z,3.00
2023-05-03T23:04:57.851Z,2.73
2023-05-03T23:07:28.446Z,2.77
2023-05-03T23:10:03.063Z,2.60
2023-05-03T23:12:31.740Z,3.00
2023-05-03T23:14:59.991Z,2.80
2023-05-03T23:17:28.730Z,3.00
2023-05-03T23:19:57.116Z,2.97
2023-05-03T23:22:26.687Z,3.00
2023-05-03T23:24:54.761Z,2.90
2023-05-03T23:27:23.135Z,2.90
2023-05-03T23:29:52.648Z,3.00
2023-05-03T23:32:21.978Z,2.67
2023-05-03T23:34:51.023Z,3.20
2023-05-03T23:37:19.686Z,2.90
2023-05-03T23:39:49.488Z,3.23
2023-05-03T23:42:18.115Z,2.60
2023-05-03T23:44:53.638Z,3.00
2023-05-03T23:47:26.179Z,2.97
2023-05-03T23:49:54.621Z,3.00
2023-05-03T23:52:22.860Z,3.33
2023-05-03T23:54:53.637Z,2.43
2023-05-03T23:57:23.372Z,3.03
2023-05-03T23:59:51.827Z,2.80
